Aviation Digital Data Service (ADDS)

Output produced by METARs form (0023 UTC 30 January 2015)
found at http://aviationweather.gov/adds/metars/
 
KCRG 292347Z 3000/3024 11004KT P6SM FEW100 BKN250 
     FM300200 22003KT P6SM SCT100 OVC250 
     FM301200 27011KT P6SM VCSH BKN020 OVC050 
     FM301700 32012G20KT P6SM SCT250 
     FM302200 33008KT P6SM FEW250